Time;durP1;ratioP1;P1;durP2;ratioP2;P2;SDS_P1;SDS_P2;PMS_P1;PMS_P2;Temp;Humidity;BMP_temperature;BMP_pressure;BME280_temperature;BME280_humidity;BME280_pressure;Samples;Min_cycle;Max_cycle;Signal;HPM_P1;HPM_P2
2023/11/24 00:00:36;;;;;;;16.33;11.10;;;4.20;83.00;;;;;;5134320;28;20188;-91
2023/11/24 00:03:03;;;;;;;19.05;11.57;;;4.10;83.20;;;;;;5133924;28;20210;-90
2023/11/24 00:05:30;;;;;;;17.58;10.88;;;4.10;83.70;;;;;;5134210;28;20189;-91
2023/11/24 00:07:57;;;;;;;19.83;12.13;;;4.20;83.70;;;;;;5133756;28;20283;-89
2023/11/24 00:10:28;;;;;;;18.63;10.93;;;4.20;84.00;;;;;;5133768;27;20251;-90
2023/11/24 00:12:55;;;;;;;19.90;12.90;;;4.20;83.90;;;;;;5134220;28;20237;-90
2023/11/24 00:15:22;;;;;;;16.08;9.93;;;4.20;84.20;;;;;;5134112;28;20180;-91
2023/11/24 00:17:50;;;;;;;15.40;10.77;;;4.20;84.30;;;;;;5133744;28;20201;-91
2023/11/24 00:20:17;;;;;;;14.52;10.23;;;4.30;83.90;;;;;;5134041;27;20200;-88
2023/11/24 00:22:48;;;;;;;17.58;11.00;;;4.30;83.20;;;;;;5134270;27;20212;-91
2023/11/24 00:25:15;;;;;;;14.90;10.20;;;4.40;82.90;;;;;;5134499;28;20177;-91
2023/11/24 00:27:43;;;;;;;13.95;10.90;;;4.40;82.90;;;;;;5133636;27;20642;-90
2023/11/24 00:30:11;;;;;;;15.90;9.93;;;4.40;82.80;;;;;;5134025;27;20298;-91
2023/11/24 00:32:39;;;;;;;16.75;11.32;;;4.40;82.60;;;;;;5137331;27;20227;-91
2023/11/24 00:35:07;;;;;;;14.15;9.95;;;4.40;82.80;;;;;;5137881;27;20192;-91
2023/11/24 00:37:34;;;;;;;15.05;9.70;;;4.50;82.00;;;;;;5137849;27;20192;-90
2023/11/24 00:40:07;;;;;;;17.40;9.90;;;4.50;81.80;;;;;;5137652;27;20599;-89
2023/11/24 00:42:35;;;;;;;14.02;9.32;;;4.50;81.90;;;;;;5137734;27;20619;-91
2023/11/24 00:45:06;;;;;;;14.90;9.70;;;4.50;82.20;;;;;;5137322;27;20220;-90
2023/11/24 00:47:33;;;;;;;16.13;10.40;;;4.50;82.00;;;;;;5137691;27;20211;-89
2023/11/24 00:50:00;;;;;;;14.38;9.52;;;4.50;81.50;;;;;;5137535;27;20215;-90
2023/11/24 00:52:27;;;;;;;15.77;11.70;;;4.50;81.30;;;;;;5137229;27;20219;-90
2023/11/24 00:54:55;;;;;;;13.05;9.88;;;4.60;81.30;;;;;;5137460;27;20594;-90
2023/11/24 00:57:22;;;;;;;16.00;9.93;;;4.50;80.80;;;;;;5137592;27;20228;-91
2023/11/24 00:59:50;;;;;;;13.88;9.23;;;4.50;81.00;;;;;;5137000;27;20559;-90
2023/11/24 01:02:19;;;;;;;12.95;8.75;;;4.50;81.10;;;;;;5137287;27;20188;-91
2023/11/24 01:04:47;;;;;;;12.48;8.55;;;4.50;80.90;;;;;;5137236;27;20272;-90
2023/11/24 01:07:14;;;;;;;12.60;8.35;;;4.50;80.80;;;;;;5136889;27;20192;-89
2023/11/24 01:09:41;;;;;;;14.30;9.77;;;4.50;80.80;;;;;;5136735;27;20208;-91
2023/11/24 01:12:08;;;;;;;13.80;8.93;;;4.50;80.40;;;;;;5137303;27;20220;-90
2023/11/24 01:14:35;;;;;;;13.40;8.80;;;4.50;80.30;;;;;;5136743;27;20224;-90
2023/11/24 01:17:02;;;;;;;12.82;8.40;;;4.50;79.40;;;;;;5136702;27;20194;-89
2023/11/24 01:19:31;;;;;;;13.43;7.95;;;4.50;78.80;;;;;;5137048;27;20568;-89
2023/11/24 01:21:58;;;;;;;12.25;8.38;;;4.40;79.00;;;;;;5137004;27;20200;-90
2023/11/24 01:24:27;;;;;;;17.20;8.57;;;4.40;79.20;;;;;;5137135;27;20534;-90
2023/11/24 01:26:55;;;;;;;14.27;8.65;;;4.40;79.90;;;;;;5136793;27;20283;-87
2023/11/24 01:29:22;;;;;;;11.98;7.60;;;4.40;80.10;;;;;;5136795;27;20192;-87
2023/11/24 01:31:49;;;;;;;11.15;7.25;;;4.50;80.00;;;;;;5136387;27;20252;-90
2023/11/24 01:34:16;;;;;;;11.30;8.25;;;4.60;79.50;;;;;;5136394;27;20224;-88
2023/11/24 01:36:44;;;;;;;11.68;7.68;;;4.60;79.60;;;;;;5136670;27;20188;-89
2023/11/24 01:39:12;;;;;;;14.02;8.20;;;4.60;79.50;;;;;;5136463;27;20220;-89
2023/11/24 01:41:45;;;;;;;12.02;7.90;;;4.60;80.00;;;;;;5136038;27;20206;-90
2023/11/24 01:44:12;;;;;;;14.55;9.32;;;4.60;80.50;;;;;;5135493;27;20208;-90
2023/11/24 01:46:40;;;;;;;11.32;8.65;;;4.60;80.80;;;;;;5136421;27;20272;-89
2023/11/24 01:49:09;;;;;;;10.38;6.90;;;4.70;80.90;;;;;;5136054;27;20230;-88
2023/11/24 01:51:36;;;;;;;12.77;6.65;;;4.80;81.00;;;;;;5135980;27;20212;-89
2023/11/24 01:54:06;;;;;;;10.95;5.47;;;4.80;80.60;;;;;;5136297;27;20256;-89
2023/11/24 01:56:33;;;;;;;9.45;6.32;;;4.90;80.50;;;;;;5135832;27;20188;-89
2023/11/24 01:59:00;;;;;;;9.73;7.05;;;5.00;80.30;;;;;;5135969;27;20718;-90
2023/11/24 02:01:30;;;;;;;9.00;5.70;;;5.10;80.00;;;;;;5135829;27;20666;-89
2023/11/24 02:03:57;;;;;;;10.27;6.90;;;5.20;79.90;;;;;;5136286;27;20237;-89
2023/11/24 02:06:24;;;;;;;8.30;5.53;;;5.30;78.90;;;;;;5135962;27;20195;-89
2023/11/24 02:08:52;;;;;;;8.82;6.00;;;5.40;78.60;;;;;;5135953;27;20591;-89
2023/11/24 02:11:20;;;;;;;9.63;6.60;;;5.40;78.20;;;;;;5135760;27;20539;-90
2023/11/24 02:13:49;;;;;;;12.40;7.10;;;5.50;78.00;;;;;;5135929;27;20189;-89
2023/11/24 02:16:16;;;;;;;11.18;7.97;;;5.60;78.10;;;;;;5135831;27;20192;-90
2023/11/24 02:18:43;;;;;;;10.07;6.45;;;5.60;77.70;;;;;;5135806;27;20317;-90
2023/11/24 02:21:11;;;;;;;8.77;5.60;;;5.60;76.60;;;;;;5135740;27;20196;-88
2023/11/24 02:23:39;;;;;;;8.55;6.22;;;5.80;76.20;;;;;;5135776;27;20219;-90
2023/11/24 02:26:09;;;;;;;8.20;5.90;;;5.80;76.00;;;;;;5135624;27;20219;-89
2023/11/24 02:28:36;;;;;;;7.50;5.28;;;5.80;76.40;;;;;;5135660;27;20184;-90
2023/11/24 02:31:03;;;;;;;7.25;5.07;;;5.90;76.60;;;;;;5135474;27;20216;-89
2023/11/24 02:33:33;;;;;;;7.32;4.30;;;6.00;76.80;;;;;;5135542;27;20287;-89
2023/11/24 02:36:05;;;;;;;7.28;5.05;;;6.00;77.70;;;;;;5135559;27;20204;-89
2023/11/24 02:38:32;;;;;;;6.30;3.88;;;6.00;78.60;;;;;;5135040;27;20176;-89
2023/11/24 02:41:01;;;;;;;7.43;4.40;;;6.20;79.60;;;;;;5135265;27;20196;-90
2023/11/24 02:43:28;;;;;;;6.78;4.70;;;6.20;80.30;;;;;;5135368;27;20219;-89
2023/11/24 02:45:55;;;;;;;8.00;5.22;;;6.30;80.90;;;;;;5135370;27;20268;-89
2023/11/24 02:48:22;;;;;;;5.55;4.00;;;6.40;81.10;;;;;;5135308;27;20187;-89
2023/11/24 02:50:49;;;;;;;5.35;4.13;;;6.50;81.40;;;;;;5135198;27;20300;-90
2023/11/24 02:53:16;;;;;;;5.65;3.78;;;6.60;81.20;;;;;;5135340;27;20280;-90
2023/11/24 02:55:43;;;;;;;5.82;3.80;;;6.60;81.30;;;;;;5134976;27;20192;-90
2023/11/24 02:58:12;;;;;;;6.95;3.60;;;6.70;81.30;;;;;;5135054;27;20219;-90
2023/11/24 03:00:39;;;;;;;4.78;3.28;;;6.70;81.00;;;;;;5135076;27;20275;-90
2023/11/24 03:03:07;;;;;;;5.20;3.72;;;6.80;81.20;;;;;;5134715;27;20737;-90
2023/11/24 03:05:35;;;;;;;5.82;3.00;;;6.80;81.30;;;;;;5134646;27;20196;-88
2023/11/24 03:08:03;;;;;;;4.88;3.22;;;6.90;81.30;;;;;;5135051;27;20191;-88
2023/11/24 03:10:30;;;;;;;5.97;2.97;;;6.90;80.90;;;;;;5134468;27;20782;-89
2023/11/24 03:12:57;;;;;;;5.10;3.45;;;7.00;80.80;;;;;;5134497;27;20184;-88
2023/11/24 03:15:25;;;;;;;5.07;3.10;;;7.00;81.10;;;;;;5134844;27;20188;-89
2023/11/24 03:17:52;;;;;;;4.60;3.15;;;7.10;81.10;;;;;;5134833;27;20220;-89
2023/11/24 03:20:21;;;;;;;5.05;3.25;;;7.10;80.20;;;;;;5134814;27;20604;-89
2023/11/24 03:22:48;;;;;;;5.03;2.90;;;7.20;80.00;;;;;;5134477;27;20718;-89
2023/11/24 03:25:16;;;;;;;5.07;2.58;;;7.30;79.50;;;;;;5134660;27;20270;-90
2023/11/24 03:27:43;;;;;;;4.38;2.75;;;7.30;79.20;;;;;;5134893;27;20550;-88
2023/11/24 03:30:10;;;;;;;4.80;2.97;;;7.30;79.20;;;;;;5134548;27;20231;-88
2023/11/24 03:32:39;;;;;;;15.85;2.65;;;7.30;79.10;;;;;;5134728;27;20290;-89
2023/11/24 03:35:07;;;;;;;4.85;2.60;;;7.40;79.60;;;;;;5134715;28;20601;-89
2023/11/24 03:37:34;;;;;;;4.63;2.95;;;7.40;80.30;;;;;;5134736;27;20220;-88
2023/11/24 03:40:01;;;;;;;4.30;2.25;;;7.40;80.90;;;;;;5134227;28;20234;-87
2023/11/24 03:42:28;;;;;;;3.63;2.17;;;7.40;81.70;;;;;;5134725;28;20223;-89
2023/11/24 03:44:55;;;;;;;5.10;2.90;;;7.40;82.50;;;;;;5134237;28;20615;-90
2023/11/24 03:47:22;;;;;;;3.97;2.38;;;7.40;83.30;;;;;;5134258;28;20211;-89
2023/11/24 03:49:51;;;;;;;5.95;3.20;;;7.40;84.20;;;;;;5134509;28;20194;-89
2023/11/24 03:52:18;;;;;;;4.53;2.80;;;7.40;85.00;;;;;;5134508;28;20295;-89
2023/11/24 03:54:45;;;;;;;4.40;2.50;;;7.30;86.00;;;;;;5134383;28;20232;-92
2023/11/24 03:57:12;;;;;;;3.47;2.47;;;7.40;85.60;;;;;;5134013;28;20224;-89
2023/11/24 03:59:39;;;;;;;4.00;2.25;;;7.30;85.50;;;;;;5133991;28;20682;-89
2023/11/24 04:02:05;;;;;;;3.60;2.10;;;7.30;85.20;;;;;;5133997;28;20227;-89
2023/11/24 04:04:32;;;;;;;6.80;3.13;;;7.30;84.90;;;;;;5134047;28;20231;-88
2023/11/24 04:07:01;;;;;;;5.00;2.72;;;7.30;85.00;;;;;;5137079;27;20188;-88
2023/11/24 04:09:28;;;;;;;5.07;2.72;;;7.30;85.10;;;;;;5138383;27;20231;-88
2023/11/24 04:11:55;;;;;;;4.85;2.20;;;7.30;85.20;;;;;;5137947;27;20295;-88
2023/11/24 04:14:22;;;;;;;3.83;2.50;;;7.30;85.60;;;;;;5138108;27;20207;-88
2023/11/24 04:16:50;;;;;;;3.83;2.78;;;7.30;85.70;;;;;;5138445;27;20579;-89
2023/11/24 04:19:17;;;;;;;4.22;2.83;;;7.30;86.20;;;;;;5137874;27;20192;-88
2023/11/24 04:21:44;;;;;;;4.72;2.60;;;7.30;86.20;;;;;;5137813;27;20228;-88
2023/11/24 04:24:13;;;;;;;4.50;2.00;;;7.30;86.40;;;;;;5137698;27;20192;-88
2023/11/24 04:26:40;;;;;;;4.75;2.70;;;7.30;86.60;;;;;;5137609;27;20412;-88
2023/11/24 04:29:07;;;;;;;4.07;2.85;;;7.30;86.40;;;;;;5137620;27;20701;-88
2023/11/24 04:31:34;;;;;;;5.03;2.83;;;7.30;86.60;;;;;;5137859;27;20212;-89
2023/11/24 04:34:03;;;;;;;4.30;2.63;;;7.30;86.70;;;;;;5137512;27;20189;-90
2023/11/24 04:36:30;;;;;;;4.97;2.40;;;7.20;86.60;;;;;;5137809;27;20252;-89
2023/11/24 04:38:56;;;;;;;3.80;2.10;;;7.10;87.00;;;;;;5137311;27;20602;-89
2023/11/24 04:41:25;;;;;;;5.27;3.17;;;7.10;87.50;;;;;;5137711;27;20191;-89
2023/11/24 04:43:52;;;;;;;3.65;1.92;;;7.00;87.80;;;;;;5137706;27;20515;-88
2023/11/24 04:46:18;;;;;;;4.82;2.70;;;7.00;88.10;;;;;;5137571;27;20267;-87
2023/11/24 04:48:45;;;;;;;4.20;2.50;;;7.00;88.30;;;;;;5137272;27;20224;-88
2023/11/24 04:51:12;;;;;;;4.00;2.55;;;6.90;88.50;;;;;;5137291;27;20244;-89
2023/11/24 04:53:39;;;;;;;3.28;2.22;;;7.00;88.60;;;;;;5137201;27;20224;-88
2023/11/24 04:56:08;;;;;;;2.97;2.03;;;7.00;88.70;;;;;;5137399;27;20230;-88
2023/11/24 04:58:36;;;;;;;4.10;2.00;;;7.10;88.40;;;;;;5137125;27;20275;-89
2023/11/24 05:01:03;;;;;;;4.18;2.58;;;7.10;88.10;;;;;;5136993;27;20722;-89
2023/11/24 05:03:32;;;;;;;4.10;2.45;;;7.20;87.90;;;;;;5136937;27;20192;-88
2023/11/24 05:05:59;;;;;;;3.50;1.90;;;7.30;87.50;;;;;;5137444;27;20184;-89
2023/11/24 05:08:26;;;;;;;3.53;1.75;;;7.30;87.90;;;;;;5136991;27;20192;-89
2023/11/24 05:10:53;;;;;;;2.70;1.80;;;7.30;88.30;;;;;;5136979;27;20192;-89
2023/11/24 05:13:20;;;;;;;4.50;2.55;;;7.30;88.70;;;;;;5137061;27;20528;-88
2023/11/24 05:15:49;;;;;;;3.72;2.28;;;7.40;89.60;;;;;;5136697;27;20230;-85
2023/11/24 05:18:16;;;;;;;4.35;2.63;;;7.40;89.70;;;;;;5136830;27;20192;-86
2023/11/24 05:20:43;;;;;;;4.75;2.60;;;7.40;89.60;;;;;;5136885;27;20216;-87
2023/11/24 05:23:14;;;;;;;4.28;2.22;;;7.40;89.60;;;;;;5137094;27;20557;-87
2023/11/24 05:25:41;;;;;;;4.35;2.58;;;7.50;89.30;;;;;;5136637;27;20273;-89
2023/11/24 05:28:08;;;;;;;4.22;2.17;;;7.50;89.50;;;;;;5136724;27;20227;-89
2023/11/24 05:30:35;;;;;;;3.60;2.20;;;7.50;89.70;;;;;;5136759;27;20188;-89
2023/11/24 05:33:04;;;;;;;4.00;2.15;;;7.50;90.10;;;;;;5136331;27;20295;-88
2023/11/24 05:35:31;;;;;;;4.07;2.25;;;7.50;90.20;;;;;;5136743;27;20188;-89
2023/11/24 05:37:59;;;;;;;4.00;2.47;;;7.50;90.10;;;;;;5136771;27;20234;-89
2023/11/24 05:40:28;;;;;;;4.40;2.60;;;7.50;90.20;;;;;;5136091;27;20188;-87
2023/11/24 05:42:55;;;;;;;4.03;2.10;;;7.50;90.30;;;;;;5136664;27;20195;-87
2023/11/24 05:45:22;;;;;;;3.72;1.95;;;7.50;90.20;;;;;;5136122;27;20220;-87
2023/11/24 05:47:49;;;;;;;3.53;1.95;;;7.50;90.20;;;;;;5136760;27;20222;-88
2023/11/24 05:50:22;;;;;;;3.60;1.90;;;7.50;90.20;;;;;;5136198;27;20227;-89
2023/11/24 05:52:49;;;;;;;2.83;1.70;;;7.50;90.20;;;;;;5136415;27;20208;-89
2023/11/24 05:55:18;;;;;;;2.88;1.60;;;7.50;90.10;;;;;;5136438;27;20220;-89
2023/11/24 05:57:45;;;;;;;3.42;1.65;;;7.60;90.00;;;;;;5136346;27;20188;-90
2023/11/24 06:00:17;;;;;;;3.22;1.80;;;7.60;90.00;;;;;;5136283;27;20223;-89
2023/11/24 06:02:44;;;;;;;2.60;1.30;;;7.60;89.80;;;;;;5136131;27;20181;-87
2023/11/24 06:05:11;;;;;;;2.92;1.35;;;7.60;89.90;;;;;;5136162;27;20656;-88
2023/11/24 06:07:40;;;;;;;4.25;1.90;;;7.60;89.40;;;;;;5136235;27;20192;-89
2023/11/24 06:10:09;;;;;;;4.10;3.05;;;7.60;89.30;;;;;;5135645;27;20717;-90
2023/11/24 06:12:36;;;;;;;4.80;2.53;;;7.60;89.40;;;;;;5135622;27;20251;-88
2023/11/24 06:15:09;;;;;;;3.08;1.92;;;7.60;89.40;;;;;;5135880;27;20244;-88
2023/11/24 06:17:36;;;;;;;3.28;1.90;;;7.60;89.20;;;;;;5135958;27;20263;-88
2023/11/24 06:20:05;;;;;;;3.22;2.33;;;7.70;89.50;;;;;;5135830;27;20184;-88
2023/11/24 06:22:32;;;;;;;3.70;1.40;;;7.70;89.30;;;;;;5135691;27;20214;-89
2023/11/24 06:25:00;;;;;;;3.35;1.70;;;7.70;89.20;;;;;;5135363;27;20241;-88
2023/11/24 06:27:27;;;;;;;2.95;1.85;;;7.80;89.50;;;;;;5135737;27;20230;-88
2023/11/24 06:29:54;;;;;;;3.17;1.55;;;7.80;88.90;;;;;;5134496;27;20184;-88
2023/11/24 06:32:21;;;;;;;3.00;1.63;;;7.80;89.10;;;;;;5135098;27;20253;-88
2023/11/24 06:34:48;;;;;;;3.05;1.80;;;7.80;88.90;;;;;;5135393;27;20188;-88
2023/11/24 06:37:15;;;;;;;2.58;1.17;;;7.90;89.20;;;;;;5135488;27;20219;-90
2023/11/24 06:39:42;;;;;;;2.60;1.42;;;7.90;89.50;;;;;;5135220;27;20606;-88
2023/11/24 06:42:11;;;;;;;3.20;1.65;;;7.90;90.00;;;;;;5135337;27;20192;-87
2023/11/24 06:44:39;;;;;;;2.67;1.48;;;7.90;90.10;;;;;;5135005;27;20350;-87
2023/11/24 06:47:10;;;;;;;2.25;1.10;;;8.00;90.00;;;;;;5135099;27;20192;-89
2023/11/24 06:49:42;;;;;;;2.65;1.30;;;8.00;90.10;;;;;;5135404;27;20661;-88
2023/11/24 06:52:15;;;;;;;2.50;1.40;;;8.00;90.10;;;;;;5134604;27;20247;-88
2023/11/24 06:54:42;;;;;;;2.30;1.15;;;8.10;90.10;;;;;;5134952;27;20184;-88
2023/11/24 06:57:10;;;;;;;2.33;1.17;;;8.10;90.00;;;;;;5134772;27;20630;-88
2023/11/24 06:59:38;;;;;;;2.83;1.30;;;8.10;90.20;;;;;;5134834;27;20220;-89
2023/11/24 07:02:05;;;;;;;3.35;1.60;;;8.10;90.00;;;;;;5134564;27;20192;-88
2023/11/24 07:04:32;;;;;;;3.58;1.20;;;8.10;90.00;;;;;;5134749;27;20296;-88
2023/11/24 07:06:59;;;;;;;2.75;1.33;;;8.10;89.80;;;;;;5134545;27;20227;-88
2023/11/24 07:09:26;;;;;;;2.63;1.35;;;8.10;89.30;;;;;;5134418;27;20223;-87
2023/11/24 07:11:53;;;;;;;3.03;1.52;;;8.10;88.50;;;;;;5134410;27;20715;-88
2023/11/24 07:14:21;;;;;;;4.55;1.70;;;8.10;88.80;;;;;;5134454;27;20188;-88
2023/11/24 07:16:48;;;;;;;2.33;1.13;;;8.10;88.80;;;;;;5131153;27;20196;-88
2023/11/24 07:19:16;;;;;;;2.40;1.45;;;8.10;88.90;;;;;;5130328;27;20610;-86
2023/11/24 07:21:44;;;;;;;4.28;1.10;;;8.20;88.70;;;;;;5134397;27;20188;-87
2023/11/24 07:24:10;;;;;;;3.55;1.38;;;8.20;88.30;;;;;;5133579;27;20729;-87
2023/11/24 07:26:38;;;;;;;2.70;1.63;;;8.20;88.00;;;;;;5133202;27;20284;-88
2023/11/24 07:29:05;;;;;;;2.85;1.20;;;8.20;88.10;;;;;;5133836;27;20190;-88
2023/11/24 07:31:34;;;;;;;2.70;1.77;;;8.30;88.10;;;;;;5133583;27;20279;-87
2023/11/24 07:34:00;;;;;;;2.92;1.75;;;8.50;87.90;;;;;;5133961;27;20188;-88
2023/11/24 07:36:27;;;;;;;3.30;1.70;;;8.70;86.90;;;;;;5133784;28;20216;-87
2023/11/24 07:38:56;;;;;;;2.80;1.48;;;8.80;86.20;;;;;;5133846;28;20225;-87
2023/11/24 07:41:24;;;;;;;4.05;1.75;;;9.00;85.10;;;;;;5135694;27;20191;-87
2023/11/24 07:43:51;;;;;;;2.50;1.23;;;9.10;83.80;;;;;;5138279;27;20703;-87
2023/11/24 07:46:18;;;;;;;2.83;1.52;;;9.10;83.50;;;;;;5137934;27;20729;-87
2023/11/24 07:48:47;;;;;;;2.53;1.30;;;9.20;83.70;;;;;;5137653;27;20248;-86
2023/11/24 07:51:14;;;;;;;2.60;1.15;;;9.30;82.70;;;;;;5138372;27;20233;-86
2023/11/24 07:53:41;;;;;;;3.10;1.52;;;9.30;82.40;;;;;;5138094;27;20211;-86
2023/11/24 07:56:08;;;;;;;2.45;1.60;;;9.30;82.60;;;;;;5138409;27;20184;-88
2023/11/24 07:58:35;;;;;;;2.53;1.17;;;9.20;82.30;;;;;;5138397;27;20192;-87
2023/11/24 08:01:03;;;;;;;3.70;2.03;;;9.20;82.00;;;;;;5138438;27;20606;-89
2023/11/24 08:03:31;;;;;;;2.53;1.73;;;9.20;82.00;;;;;;5138751;27;20196;-87
2023/11/24 08:06:06;;;;;;;2.47;1.38;;;9.20;81.90;;;;;;5138228;27;20191;-86
2023/11/24 08:08:33;;;;;;;3.20;2.00;;;9.20;81.80;;;;;;5137972;27;20271;-87
2023/11/24 08:11:00;;;;;;;3.45;2.00;;;9.30;81.50;;;;;;5138125;27;20603;-87
2023/11/24 08:13:27;;;;;;;2.80;1.50;;;9.30;81.50;;;;;;5137739;27;20295;-87
2023/11/24 08:15:56;;;;;;;3.05;1.60;;;9.40;81.80;;;;;;5137777;27;20184;-87
2023/11/24 08:18:23;;;;;;;2.67;1.25;;;9.40;81.60;;;;;;5137798;27;20227;-88
2023/11/24 08:20:50;;;;;;;3.45;1.73;;;9.40;81.10;;;;;;5137972;27;20227;-88
2023/11/24 08:23:19;;;;;;;2.78;1.55;;;9.50;81.60;;;;;;5138226;27;20188;-89
2023/11/24 08:25:48;;;;;;;3.30;1.75;;;9.60;81.20;;;;;;5137510;27;20678;-87
2023/11/24 08:28:17;;;;;;;3.25;1.75;;;9.80;80.30;;;;;;5137904;27;20188;-87
2023/11/24 08:30:44;;;;;;;2.88;1.80;;;9.80;79.30;;;;;;5137788;27;20192;-87
2023/11/24 08:33:11;;;;;;;3.40;1.60;;;9.80;78.90;;;;;;5137757;27;20317;-87
2023/11/24 08:35:39;;;;;;;3.33;1.85;;;9.80;79.50;;;;;;5137373;27;20650;-86
2023/11/24 08:38:06;;;;;;;3.55;1.92;;;9.80;79.30;;;;;;5137661;27;20576;-88
2023/11/24 08:40:35;;;;;;;3.70;1.90;;;9.80;79.00;;;;;;5137487;27;20226;-88
2023/11/24 08:43:02;;;;;;;2.58;1.50;;;9.70;79.20;;;;;;5137545;27;20230;-86
2023/11/24 08:45:29;;;;;;;2.95;1.80;;;9.70;79.30;;;;;;5137316;27;20268;-88
2023/11/24 08:47:59;;;;;;;2.60;1.50;;;9.70;79.40;;;;;;5137309;27;20219;-89
2023/11/24 08:50:28;;;;;;;2.65;1.60;;;9.60;79.20;;;;;;5137212;27;20685;-90
2023/11/24 08:52:55;;;;;;;3.83;1.67;;;9.60;79.60;;;;;;5136613;27;20208;-90
2023/11/24 08:55:22;;;;;;;3.05;1.83;;;9.60;79.80;;;;;;5137270;27;20200;-89
2023/11/24 08:57:51;;;;;;;3.50;1.70;;;9.50;80.30;;;;;;5136940;27;20229;-89
2023/11/24 09:00:20;;;;;;;3.50;1.98;;;9.50;80.70;;;;;;5137371;27;20192;-89
2023/11/24 09:02:48;;;;;;;3.25;1.80;;;9.50;80.90;;;;;;5137277;27;20228;-89
2023/11/24 09:05:17;;;;;;;2.20;1.30;;;9.40;80.70;;;;;;5137032;27;20231;-89
2023/11/24 09:07:44;;;;;;;3.03;1.55;;;9.40;81.80;;;;;;5137073;27;20270;-90
2023/11/24 09:10:14;;;;;;;3.25;1.73;;;9.40;81.20;;;;;;5137078;27;20188;-89
2023/11/24 09:12:42;;;;;;;2.72;1.30;;;9.40;81.30;;;;;;5136756;27;20204;-92
2023/11/24 09:15:11;;;;;;;2.22;1.30;;;9.40;81.20;;;;;;5136620;27;20223;-89
2023/11/24 09:17:38;;;;;;;2.80;1.33;;;9.40;81.70;;;;;;5136949;27;20224;-89
2023/11/24 09:20:08;;;;;;;3.50;1.90;;;9.40;81.60;;;;;;5136908;27;20184;-91
2023/11/24 09:22:35;;;;;;;3.80;2.00;;;9.40;82.30;;;;;;5137472;27;20196;-89
2023/11/24 09:25:04;;;;;;;4.05;2.30;;;9.40;82.70;;;;;;5136475;27;20651;-90
2023/11/24 09:27:34;;;;;;;3.13;1.90;;;9.40;82.50;;;;;;5136743;27;20527;-90
2023/11/24 09:30:01;;;;;;;3.08;1.60;;;9.40;82.60;;;;;;5136733;27;20184;-89
2023/11/24 09:32:34;;;;;;;3.60;2.00;;;9.40;82.40;;;;;;5136551;27;20545;-90
2023/11/24 09:35:06;;;;;;;2.40;1.35;;;9.40;82.40;;;;;;5136494;27;20563;-89
2023/11/24 09:37:34;;;;;;;2.20;1.38;;;9.40;82.90;;;;;;5136567;27;20191;-90
2023/11/24 09:40:01;;;;;;;2.85;1.92;;;9.40;83.80;;;;;;5136059;27;20192;-90
2023/11/24 09:42:33;;;;;;;2.58;1.50;;;9.30;83.90;;;;;;5136569;27;20194;-89
2023/11/24 09:45:14;;;;;;;2.83;1.40;;;9.30;84.00;;;;;;5136163;27;20208;-89
2023/11/24 09:47:47;;;;;;;3.80;1.98;;;9.30;83.20;;;;;;5136097;27;20228;-89
2023/11/24 09:50:16;;;;;;;3.35;1.63;;;9.30;83.80;;;;;;5136078;27;20184;-89
2023/11/24 09:52:46;;;;;;;3.33;1.92;;;9.30;84.30;;;;;;5135851;27;20223;-90
2023/11/24 09:55:15;;;;;;;3.30;1.65;;;9.30;85.60;;;;;;5135767;27;20220;-89
2023/11/24 09:57:44;;;;;;;2.70;1.50;;;9.40;86.50;;;;;;5135766;27;20232;-89
2023/11/24 10:00:15;;;;;;;2.80;1.77;;;9.30;86.10;;;;;;5135807;27;20656;-89
2023/11/24 10:02:44;;;;;;;3.00;1.80;;;9.30;85.60;;;;;;5133948;27;20219;-88
2023/11/24 10:05:17;;;;;;;2.75;1.70;;;9.30;85.90;;;;;;5135003;27;20638;-88
2023/11/24 10:07:53;;;;;;;4.45;1.75;;;9.20;86.10;;;;;;5135552;27;20211;-90
2023/11/24 10:10:23;;;;;;;3.40;1.50;;;9.20;86.70;;;;;;5134754;27;20230;-87
2023/11/24 10:12:52;;;;;;;3.72;1.25;;;9.30;87.40;;;;;;5135283;27;20243;-89
2023/11/24 10:15:34;;;;;;;32.78;13.63;;;9.20;88.30;;;;;;5134840;27;20188;-87
2023/11/24 10:18:03;;;;;;;3.30;1.92;;;9.30;89.00;;;;;;5135368;27;20216;-87
2023/11/24 10:20:32;;;;;;;2.10;1.20;;;9.20;89.50;;;;;;5135009;27;20195;-87
2023/11/24 10:23:03;;;;;;;2.30;1.00;;;9.30;87.30;;;;;;5135250;27;20223;-88
2023/11/24 10:25:44;;;;;;;4.82;0.98;;;9.10;83.40;;;;;;5135537;27;20252;-88
2023/11/24 10:28:11;;;;;;;2.53;1.20;;;8.90;81.90;;;;;;5135715;27;20207;-87
2023/11/24 10:30:38;;;;;;;2.47;0.90;;;8.70;81.50;;;;;;5134609;27;20234;-88
2023/11/24 10:33:07;;;;;;;4.70;0.90;;;8.60;81.40;;;;;;5135011;27;20228;-89
2023/11/24 10:35:34;;;;;;;1.95;0.80;;;8.40;81.20;;;;;;5135280;27;20628;-89
2023/11/24 10:38:02;;;;;;;1.90;0.85;;;8.30;81.20;;;;;;5135019;27;20663;-88
2023/11/24 10:40:32;;;;;;;1.80;0.88;;;8.10;81.30;;;;;;5135249;27;20192;-87
2023/11/24 10:43:00;;;;;;;1.80;0.70;;;8.00;81.80;;;;;;5135185;27;20188;-87
2023/11/24 10:45:31;;;;;;;2.72;1.10;;;7.90;81.60;;;;;;5134754;27;20258;-88
2023/11/24 10:48:09;;;;;;;2.80;0.75;;;7.70;80.70;;;;;;5134465;27;20188;-87
2023/11/24 10:50:59;;;;;;;1.80;0.80;;;7.70;80.30;;;;;;5134791;27;20272;-88
2023/11/24 10:53:34;;;;;;;1.80;0.70;;;7.50;80.50;;;;;;5134970;27;20200;-87
2023/11/24 10:56:03;;;;;;;2.67;1.00;;;7.40;80.50;;;;;;5134889;27;20172;-89
2023/11/24 10:58:31;;;;;;;2.42;0.70;;;7.40;80.90;;;;;;5134955;27;20278;-87
2023/11/24 11:00:58;;;;;;;2.30;0.90;;;7.20;80.90;;;;;;5134733;27;20230;-89
2023/11/24 11:03:27;;;;;;;11.85;4.63;;;7.20;81.30;;;;;;5134815;27;20192;-86
2023/11/24 11:06:05;;;;;;;1.80;0.82;;;7.10;81.10;;;;;;5134830;27;20622;-87
2023/11/24 11:08:41;;;;;;;1.80;0.90;;;7.00;82.00;;;;;;5134800;27;20198;-87
2023/11/24 11:11:30;;;;;;;1.90;0.70;;;7.00;82.80;;;;;;5133416;27;20216;-86
2023/11/24 11:14:00;;;;;;;1.98;0.70;;;6.90;82.50;;;;;;5134339;27;20211;-86
2023/11/24 11:16:29;;;;;;;3.40;1.17;;;6.80;83.20;;;;;;5134476;27;20188;-86
2023/11/24 11:19:02;;;;;;;1.85;0.75;;;6.80;84.00;;;;;;5134230;27;20195;-86
2023/11/24 11:21:39;;;;;;;1.70;0.60;;;6.80;85.00;;;;;;5134241;27;20735;-87
2023/11/24 11:24:24;;;;;;;1.80;0.90;;;6.80;85.20;;;;;;5134274;27;20238;-87
2023/11/24 11:26:57;;;;;;;6.22;0.80;;;6.90;85.20;;;;;;5134628;27;20187;-87
2023/11/24 11:29:26;;;;;;;2.25;1.00;;;6.80;84.70;;;;;;5134246;27;20269;-87
2023/11/24 11:31:57;;;;;;;2.58;0.90;;;6.80;84.90;;;;;;5134435;27;20188;-86
2023/11/24 11:34:30;;;;;;;1.70;0.60;;;6.80;85.20;;;;;;5134316;27;20246;-86
2023/11/24 11:37:11;;;;;;;1.85;0.73;;;6.80;85.00;;;;;;5134520;27;20208;-86
2023/11/24 11:39:53;;;;;;;1.70;0.57;;;6.80;85.10;;;;;;5134422;28;20199;-86
2023/11/24 11:42:22;;;;;;;2.90;0.70;;;6.80;85.10;;;;;;5134485;28;20204;-87
2023/11/24 11:44:56;;;;;;;1.90;0.70;;;6.80;84.60;;;;;;5134054;28;20539;-86
2023/11/24 11:47:26;;;;;;;3.50;0.88;;;6.70;84.70;;;;;;5134536;28;20227;-86
2023/11/24 11:49:56;;;;;;;2.45;1.05;;;6.70;84.70;;;;;;5133937;28;20184;-87
2023/11/24 11:52:26;;;;;;;1.70;0.60;;;6.60;85.20;;;;;;5134361;27;20618;-87
2023/11/24 11:55:00;;;;;;;2.00;0.80;;;6.60;85.10;;;;;;5134044;28;20212;-87
2023/11/24 11:57:29;;;;;;;2.10;0.73;;;6.50;85.30;;;;;;5133945;27;20176;-86
2023/11/24 11:59:56;;;;;;;2.00;0.85;;;6.50;85.50;;;;;;5134205;28;20196;-86
2023/11/24 12:02:24;;;;;;;1.92;0.70;;;6.50;86.20;;;;;;5133828;28;20184;-87
2023/11/24 12:04:51;;;;;;;2.00;0.70;;;6.40;86.20;;;;;;5134124;28;20243;-86
2023/11/24 12:07:22;;;;;;;2.10;0.82;;;6.40;86.70;;;;;;5133784;28;20223;-87
2023/11/24 12:09:55;;;;;;;1.98;0.70;;;6.40;86.90;;;;;;5134266;28;20611;-87
2023/11/24 12:12:23;;;;;;;1.70;0.68;;;6.40;87.00;;;;;;5134090;28;20541;-86
2023/11/24 12:14:54;;;;;;;2.00;0.70;;;6.30;87.00;;;;;;5133977;27;20220;-88
2023/11/24 12:17:23;;;;;;;1.70;0.50;;;6.30;87.30;;;;;;5134028;28;20571;-88
2023/11/24 12:19:52;;;;;;;2.25;0.73;;;6.20;87.30;;;;;;5133660;28;20661;-84
2023/11/24 12:22:21;;;;;;;3.58;1.20;;;6.20;87.10;;;;;;5133999;28;20188;-85
2023/11/24 12:24:48;;;;;;;1.80;0.70;;;6.20;86.70;;;;;;5133831;28;20207;-85
2023/11/24 12:27:15;;;;;;;3.00;0.90;;;6.20;87.40;;;;;;5135383;27;20227;-84
2023/11/24 12:29:46;;;;;;;5.13;2.38;;;6.20;87.50;;;;;;5137786;27;20531;-85
2023/11/24 12:32:13;;;;;;;3.45;1.00;;;6.30;87.70;;;;;;5137924;27;20207;-86
2023/11/24 12:34:45;;;;;;;1.80;0.80;;;6.30;87.50;;;;;;5137519;27;20302;-88
2023/11/24 12:37:13;;;;;;;1.80;0.70;;;6.30;87.90;;;;;;5137571;27;20172;-85
2023/11/24 12:39:42;;;;;;;2.63;0.98;;;6.30;88.30;;;;;;5133900;27;20275;-87
2023/11/24 12:42:10;;;;;;;2.13;0.80;;;6.30;88.70;;;;;;5136537;27;20689;-86
2023/11/24 12:44:39;;;;;;;2.47;1.08;;;6.40;88.80;;;;;;5137391;27;20199;-86
2023/11/24 12:47:10;;;;;;;3.15;1.00;;;6.40;88.70;;;;;;5124121;27;20217;-86
2023/11/24 12:49:57;;;;;;;2.17;1.00;;;6.50;89.10;;;;;;5136120;27;20189;-88
2023/11/24 12:52:24;;;;;;;2.28;1.00;;;6.70;90.00;;;;;;5137009;27;20240;-87
2023/11/24 12:54:54;;;;;;;2.65;1.10;;;6.80;89.80;;;;;;5136017;27;20244;-87
2023/11/24 12:57:21;;;;;;;4.15;1.45;;;6.90;89.90;;;;;;5137331;27;20595;-85
2023/11/24 12:59:48;;;;;;;2.33;1.00;;;6.90;90.00;;;;;;5136667;27;20237;-87
2023/11/24 13:02:18;;;;;;;5.95;2.38;;;7.00;90.30;;;;;;5137066;27;20192;-86